Time;durP1;ratioP1;P1;durP2;ratioP2;P2;SDS_P1;SDS_P2;PMS_P1;PMS_P2;Temp;Humidity;BMP_temperature;BMP_pressure;BME280_temperature;BME280_humidity;BME280_pressure;Samples;Min_cycle;Max_cycle;Signal;HPM_P1;HPM_P2
2023/03/24 00:02:09;;;;;;;0.10;0.10;;;;;;;;;;5090486;28;20123;-70
2023/03/24 00:04:34;;;;;;;0.10;0.10;;;;;;;;;;5090280;28;20020;-71
2023/03/24 00:07:00;;;;;;;0.10;0.10;;;;;;;;;;5089178;28;20051;-71
2023/03/24 00:09:27;;;;;;;0.10;0.10;;;;;;;;;;5090168;28;20053;-71
2023/03/24 00:11:53;;;;;;;0.00;0.00;;;;;;;;;;5071312;28;20145;-71
2023/03/24 00:14:18;;;;;;;0.10;0.10;;;;;;;;;;5083300;28;20041;-70
2023/03/24 00:16:45;;;;;;;0.10;0.10;;;;;;;;;;5087455;28;20040;-71
2023/03/24 00:19:14;;;;;;;0.10;0.10;;;;;;;;;;5088489;28;20032;-71
2023/03/24 00:21:40;;;;;;;0.10;0.10;;;;;;;;;;5084452;28;20062;-71
2023/03/24 00:24:06;;;;;;;0.10;0.10;;;;;;;;;;5092429;28;20036;-74
2023/03/24 00:26:33;;;;;;;0.10;0.10;;;;;;;;;;5091974;28;20040;-71
2023/03/24 00:28:58;;;;;;;0.10;0.10;;;;;;;;;;5093360;28;20107;-71
2023/03/24 00:31:24;;;;;;;0.10;0.10;;;;;;;;;;5091917;28;20048;-72
2023/03/24 00:33:50;;;;;;;0.10;0.10;;;;;;;;;;5076502;28;20433;-74
2023/03/24 00:36:18;;;;;;;0.10;0.10;;;;;;;;;;5082830;28;20128;-73
2023/03/24 00:38:46;;;;;;;0.10;0.10;;;;;;;;;;5068004;28;20097;-71
2023/03/24 00:41:12;;;;;;;0.10;0.10;;;;;;;;;;5088206;28;20032;-71
2023/03/24 00:43:37;;;;;;;0.10;0.10;;;;;;;;;;5067579;28;20039;-73
2023/03/24 00:46:04;;;;;;;0.13;0.13;;;;;;;;;;5090217;28;20503;-72
2023/03/24 00:48:33;;;;;;;0.10;0.10;;;;;;;;;;5083865;28;20444;-71
2023/03/24 00:51:01;;;;;;;0.10;0.10;;;;;;;;;;5072091;28;20051;-71
2023/03/24 00:53:28;;;;;;;0.20;0.20;;;;;;;;;;5080351;28;20120;-75
2023/03/24 00:55:53;;;;;;;0.10;0.10;;;;;;;;;;5090296;28;20036;-73
2023/03/24 00:58:23;;;;;;;0.10;0.10;;;;;;;;;;5088908;28;20036;-73
2023/03/24 01:00:50;;;;;;;0.10;0.10;;;;;;;;;;5088660;28;20067;-72
2023/03/24 01:03:17;;;;;;;0.10;0.10;;;;;;;;;;5089643;28;20110;-72
2023/03/24 01:05:46;;;;;;;0.10;0.10;;;;;;;;;;5088637;28;20894;-70
2023/03/24 01:08:13;;;;;;;0.10;0.10;;;;;;;;;;5081497;28;20089;-71
2023/03/24 01:10:41;;;;;;;0.10;0.10;;;;;;;;;;5069679;28;20892;-71
2023/03/24 01:13:07;;;;;;;0.10;0.10;;;;;;;;;;5051468;28;20033;-71
2023/03/24 01:15:35;;;;;;;3.80;0.60;;;;;;;;;;5067865;28;20492;-71
2023/03/24 01:18:01;;;;;;;0.10;0.10;;;;;;;;;;5068253;28;20047;-71
2023/03/24 01:20:27;;;;;;;0.32;0.32;;;;;;;;;;5069357;28;20381;-71
2023/03/24 01:22:54;;;;;;;0.10;0.10;;;;;;;;;;5067887;28;20547;-72
2023/03/24 01:25:20;;;;;;;0.10;0.10;;;;;;;;;;5051003;28;20171;-71
2023/03/24 01:27:47;;;;;;;1.77;0.68;;;;;;;;;;5051379;28;20404;-72
2023/03/24 01:30:13;;;;;;;0.10;0.10;;;;;;;;;;5067984;28;20455;-71
2023/03/24 01:32:39;;;;;;;0.10;0.10;;;;;;;;;;5051456;28;20075;-71
2023/03/24 01:35:05;;;;;;;0.10;0.10;;;;;;;;;;5069187;28;20056;-72
2023/03/24 01:37:30;;;;;;;0.10;0.10;;;;;;;;;;5068816;28;20067;-72
2023/03/24 01:39:56;;;;;;;0.10;0.10;;;;;;;;;;5072123;28;20800;-71
2023/03/24 01:42:23;;;;;;;0.10;0.10;;;;;;;;;;5075652;28;20128;-72
2023/03/24 01:44:50;;;;;;;0.10;0.10;;;;;;;;;;5074719;28;20046;-72
2023/03/24 01:47:16;;;;;;;0.10;0.10;;;;;;;;;;5075705;28;20040;-71
2023/03/24 01:50:01;;;;;;;0.10;0.10;;;;;;;;;;5094905;28;20119;-71
2023/03/24 01:52:29;;;;;;;0.10;0.10;;;;;;;;;;5096170;28;20122;-71
2023/03/24 01:54:57;;;;;;;0.00;0.00;;;;;;;;;;5077721;28;20031;-74
2023/03/24 01:57:28;;;;;;;1.25;0.95;;;;;;;;;;5094361;28;20047;-72
2023/03/24 01:59:56;;;;;;;0.20;0.20;;;;;;;;;;5094814;28;20111;-71
2023/03/24 02:02:48;;;;;;;0.10;0.10;;;;;;;;;;5095060;28;20062;-74
2023/03/24 02:05:21;;;;;;;0.10;0.10;;;;;;;;;;5094655;28;20071;-72
2023/03/24 02:07:51;;;;;;;0.10;0.10;;;;;;;;;;5094927;28;20125;-72
2023/03/24 02:10:18;;;;;;;0.10;0.10;;;;;;;;;;5078054;28;20036;-72
2023/03/24 02:12:44;;;;;;;0.10;0.10;;;;;;;;;;5094837;28;20036;-71
2023/03/24 02:15:10;;;;;;;0.13;0.13;;;;;;;;;;5093707;28;20036;-72
2023/03/24 02:17:58;;;;;;;0.10;0.10;;;;;;;;;;5077546;28;20114;-71
2023/03/24 02:20:27;;;;;;;0.10;0.10;;;;;;;;;;5094621;28;20031;-71
2023/03/24 02:23:13;;;;;;;0.10;0.10;;;;;;;;;;5095896;28;20024;-71
2023/03/24 02:25:45;;;;;;;0.10;0.10;;;;;;;;;;5094559;28;20043;-71
2023/03/24 02:28:23;;;;;;;0.10;0.10;;;;;;;;;;5094819;28;20035;-70
2023/03/24 02:31:07;;;;;;;0.00;0.00;;;;;;;;;;5095369;28;20036;-71
2023/03/24 02:33:38;;;;;;;0.20;0.20;;;;;;;;;;5093954;28;20127;-72
2023/03/24 02:36:10;;;;;;;0.10;0.10;;;;;;;;;;5087394;28;20507;-70
2023/03/24 02:39:02;;;;;;;0.10;0.10;;;;;;;;;;5074224;28;20391;-71
2023/03/24 02:41:46;;;;;;;0.10;0.10;;;;;;;;;;5065666;28;20048;-71
2023/03/24 02:44:12;;;;;;;0.10;0.10;;;;;;;;;;5073903;28;20028;-70
2023/03/24 02:46:48;;;;;;;0.10;0.10;;;;;;;;;;5073850;28;20025;-70
2023/03/24 02:49:13;;;;;;;0.10;0.10;;;;;;;;;;5073339;28;20468;-71
2023/03/24 02:51:47;;;;;;;0.10;0.10;;;;;;;;;;5072680;28;20109;-73
2023/03/24 02:54:27;;;;;;;0.10;0.10;;;;;;;;;;5070756;28;20075;-71
2023/03/24 02:56:52;;;;;;;0.10;0.10;;;;;;;;;;5070926;28;20048;-71
2023/03/24 02:59:49;;;;;;;0.10;0.10;;;;;;;;;;5074216;28;20052;-73
2023/03/24 03:02:42;;;;;;;0.10;0.10;;;;;;;;;;5070576;28;20535;-73
2023/03/24 03:05:13;;;;;;;0.10;0.10;;;;;;;;;;5070912;28;20039;-70
2023/03/24 03:07:40;;;;;;;4.30;0.95;;;;;;;;;;5070522;28;20546;-70
2023/03/24 03:10:17;;;;;;;0.10;0.10;;;;;;;;;;5077146;28;20106;-71
2023/03/24 03:12:45;;;;;;;0.00;0.00;;;;;;;;;;5090511;28;20036;-71
2023/03/24 03:15:22;;;;;;;0.10;0.10;;;;;;;;;;5091964;28;20039;-71
2023/03/24 03:17:52;;;;;;;0.10;0.10;;;;;;;;;;5090661;28;20868;-71
2023/03/24 03:20:20;;;;;;;0.10;0.10;;;;;;;;;;5090745;28;20036;-71
2023/03/24 03:22:49;;;;;;;0.10;0.10;;;;;;;;;;5091795;28;20040;-73
2023/03/24 03:25:17;;;;;;;0.10;0.10;;;;;;;;;;5090260;28;20036;-72
2023/03/24 03:27:45;;;;;;;0.10;0.10;;;;;;;;;;5090227;28;20119;-72
2023/03/24 03:30:17;;;;;;;0.20;0.20;;;;;;;;;;5073813;28;20031;-71
2023/03/24 03:32:52;;;;;;;0.10;0.10;;;;;;;;;;5091793;28;20036;-71
2023/03/24 03:35:23;;;;;;;0.10;0.10;;;;;;;;;;5090194;28;20124;-71
2023/03/24 03:37:54;;;;;;;0.10;0.10;;;;;;;;;;5091867;28;20036;-72
2023/03/24 03:40:23;;;;;;;0.10;0.10;;;;;;;;;;5090468;28;20035;-71
2023/03/24 03:42:54;;;;;;;0.20;0.20;;;;;;;;;;5073953;28;20028;-73
2023/03/24 03:45:19;;;;;;;0.10;0.10;;;;;;;;;;5091537;28;20490;-75
2023/03/24 03:47:45;;;;;;;0.10;0.10;;;;;;;;;;5091266;28;20020;-72
2023/03/24 03:50:11;;;;;;;0.73;0.73;;;;;;;;;;5090854;28;20036;-72
2023/03/24 03:52:37;;;;;;;0.10;0.10;;;;;;;;;;5089423;28;20036;-71
2023/03/24 03:55:03;;;;;;;0.10;0.10;;;;;;;;;;5091555;28;20063;-71
2023/03/24 03:57:29;;;;;;;0.22;0.22;;;;;;;;;;5089814;28;20122;-71
2023/03/24 04:00:18;;;;;;;0.10;0.10;;;;;;;;;;5089878;28;20388;-71
2023/03/24 04:03:16;;;;;;;1.65;1.08;;;;;;;;;;5089179;28;20437;-71
2023/03/24 04:06:02;;;;;;;0.10;0.10;;;;;;;;;;5089533;28;20077;-75
2023/03/24 04:08:30;;;;;;;0.10;0.10;;;;;;;;;;5089457;28;20082;-71
2023/03/24 04:11:32;;;;;;;0.10;0.10;;;;;;;;;;5090688;28;20064;-71
2023/03/24 04:14:10;;;;;;;0.10;0.10;;;;;;;;;;5090780;28;20040;-71
2023/03/24 04:17:13;;;;;;;0.20;0.20;;;;;;;;;;5088831;28;20421;-72
2023/03/24 04:20:02;;;;;;;0.10;0.10;;;;;;;;;;5080843;28;20035;-72
2023/03/24 04:22:37;;;;;;;0.35;0.35;;;;;;;;;;5088866;28;20040;-72
2023/03/24 04:25:34;;;;;;;0.10;0.10;;;;;;;;;;5069435;28;20073;-72
2023/03/24 04:28:04;;;;;;;0.10;0.10;;;;;;;;;;5068829;28;20032;-72
2023/03/24 04:30:56;;;;;;;0.10;0.10;;;;;;;;;;5076109;28;20542;-72
2023/03/24 04:33:27;;;;;;;0.10;0.10;;;;;;;;;;5087980;28;20055;-72
2023/03/24 04:36:15;;;;;;;0.10;0.10;;;;;;;;;;5089074;28;20040;-72
2023/03/24 04:39:01;;;;;;;0.25;0.25;;;;;;;;;;5089999;28;20059;-71
2023/03/24 04:41:40;;;;;;;0.10;0.10;;;;;;;;;;5088886;28;20036;-70
2023/03/24 04:44:12;;;;;;;0.10;0.10;;;;;;;;;;5088765;28;20388;-70
2023/03/24 04:46:55;;;;;;;0.10;0.10;;;;;;;;;;5088624;28;20491;-71
2023/03/24 04:49:24;;;;;;;0.10;0.10;;;;;;;;;;5088644;28;20031;-70
2023/03/24 04:51:50;;;;;;;0.10;0.10;;;;;;;;;;5068700;28;20047;-72
2023/03/24 04:54:25;;;;;;;0.10;0.10;;;;;;;;;;5088680;28;20046;-70
2023/03/24 04:56:58;;;;;;;0.10;0.10;;;;;;;;;;5088256;28;20050;-72
2023/03/24 04:59:29;;;;;;;0.10;0.10;;;;;;;;;;5071930;28;20470;-70
2023/03/24 05:01:56;;;;;;;0.13;0.13;;;;;;;;;;5087475;28;20035;-71
2023/03/24 05:04:35;;;;;;;0.10;0.10;;;;;;;;;;5078103;28;20031;-70
2023/03/24 05:07:14;;;;;;;0.10;0.10;;;;;;;;;;5088241;28;20040;-71
2023/03/24 05:09:41;;;;;;;0.10;0.10;;;;;;;;;;5086716;28;20120;-71
2023/03/24 05:12:07;;;;;;;0.10;0.10;;;;;;;;;;5084948;28;20032;-71
2023/03/24 05:14:47;;;;;;;0.28;0.28;;;;;;;;;;5075396;28;20036;-70
2023/03/24 05:17:12;;;;;;;0.10;0.10;;;;;;;;;;5086612;28;20517;-73
2023/03/24 05:19:37;;;;;;;0.10;0.10;;;;;;;;;;5085520;28;20027;-73
2023/03/24 05:22:06;;;;;;;0.10;0.10;;;;;;;;;;5084748;28;20024;-72
2023/03/24 05:24:31;;;;;;;0.10;0.10;;;;;;;;;;5086645;28;20032;-71
2023/03/24 05:26:57;;;;;;;0.10;0.10;;;;;;;;;;5070238;28;20043;-72
2023/03/24 05:29:22;;;;;;;0.10;0.10;;;;;;;;;;5083990;28;20085;-75
2023/03/24 05:31:48;;;;;;;0.10;0.10;;;;;;;;;;5079814;28;20044;-71
2023/03/24 05:34:20;;;;;;;0.10;0.10;;;;;;;;;;5086758;28;20024;-72
2023/03/24 05:37:03;;;;;;;0.20;0.20;;;;;;;;;;5084527;28;20055;-72
2023/03/24 05:39:28;;;;;;;0.10;0.10;;;;;;;;;;5085618;28;20033;-72
2023/03/24 05:42:05;;;;;;;0.55;0.55;;;;;;;;;;5088281;28;20453;-71
2023/03/24 05:44:30;;;;;;;0.75;0.68;;;;;;;;;;5086695;28;20069;-72
2023/03/24 05:47:03;;;;;;;0.10;0.10;;;;;;;;;;5070286;28;20040;-71
2023/03/24 05:49:28;;;;;;;0.10;0.10;;;;;;;;;;5084464;28;20039;-72
2023/03/24 05:51:55;;;;;;;0.10;0.10;;;;;;;;;;5070278;28;20392;-74
2023/03/24 05:54:21;;;;;;;0.22;0.22;;;;;;;;;;5089480;28;20043;-72
2023/03/24 05:56:48;;;;;;;0.10;0.10;;;;;;;;;;5069759;28;20105;-71
2023/03/24 05:59:34;;;;;;;0.10;0.10;;;;;;;;;;5086283;28;20047;-70
2023/03/24 06:02:09;;;;;;;0.10;0.10;;;;;;;;;;5085910;28;20043;-72
2023/03/24 06:04:57;;;;;;;0.10;0.10;;;;;;;;;;5086694;28;20036;-72
2023/03/24 06:07:25;;;;;;;0.57;0.57;;;;;;;;;;5086824;28;20131;-72
2023/03/24 06:09:56;;;;;;;0.10;0.10;;;;;;;;;;5087490;28;20047;-74
2023/03/24 06:12:23;;;;;;;0.10;0.10;;;;;;;;;;5085606;28;20040;-72
2023/03/24 06:14:53;;;;;;;0.10;0.10;;;;;;;;;;5086878;28;20180;-73
2023/03/24 06:17:20;;;;;;;0.10;0.10;;;;;;;;;;5087656;28;20563;-73
2023/03/24 06:19:49;;;;;;;0.10;0.10;;;;;;;;;;5087513;28;20499;-74
2023/03/24 06:22:35;;;;;;;0.13;0.13;;;;;;;;;;5087709;28;20042;-73
2023/03/24 06:25:03;;;;;;;1.45;0.85;;;;;;;;;;5087397;28;20036;-73
2023/03/24 06:27:29;;;;;;;0.10;0.10;;;;;;;;;;5088639;28;20491;-72
2023/03/24 06:29:56;;;;;;;0.10;0.10;;;;;;;;;;5089382;28;20028;-72
2023/03/24 06:32:21;;;;;;;0.10;0.10;;;;;;;;;;5090499;28;20043;-73
2023/03/24 06:34:47;;;;;;;0.10;0.10;;;;;;;;;;5089364;28;20039;-72
2023/03/24 06:37:20;;;;;;;0.10;0.10;;;;;;;;;;5089098;28;20040;-73
2023/03/24 06:39:46;;;;;;;0.20;0.20;;;;;;;;;;5088872;28;20043;-72
2023/03/24 06:42:13;;;;;;;0.20;0.20;;;;;;;;;;5072785;28;20024;-71
2023/03/24 06:44:39;;;;;;;0.10;0.10;;;;;;;;;;5091070;28;20085;-71
2023/03/24 06:47:04;;;;;;;0.95;0.95;;;;;;;;;;5091159;28;20046;-73
2023/03/24 06:49:30;;;;;;;0.10;0.10;;;;;;;;;;5090875;28;20031;-72
2023/03/24 06:51:55;;;;;;;0.10;0.10;;;;;;;;;;5091221;28;20032;-72
2023/03/24 06:54:22;;;;;;;0.10;0.10;;;;;;;;;;5073990;28;20081;-72
2023/03/24 06:56:48;;;;;;;0.17;0.17;;;;;;;;;;5090769;28;20044;-72
2023/03/24 06:59:16;;;;;;;0.20;0.20;;;;;;;;;;5090450;28;20111;-73
2023/03/24 07:01:42;;;;;;;0.10;0.10;;;;;;;;;;5090767;28;20123;-71
2023/03/24 07:04:19;;;;;;;0.10;0.10;;;;;;;;;;5091132;28;20479;-72
2023/03/24 07:06:59;;;;;;;0.95;0.95;;;;;;;;;;5075681;28;20480;-75
2023/03/24 07:09:25;;;;;;;0.10;0.10;;;;;;;;;;5090475;28;20089;-71
2023/03/24 07:11:51;;;;;;;0.20;0.20;;;;;;;;;;5090697;28;20063;-71
2023/03/24 07:14:18;;;;;;;0.13;0.13;;;;;;;;;;5090821;28;20093;-76
2023/03/24 07:16:45;;;;;;;0.20;0.20;;;;;;;;;;5090718;28;20393;-73
2023/03/24 07:19:22;;;;;;;0.10;0.10;;;;;;;;;;5091456;28;20044;-74
2023/03/24 07:21:56;;;;;;;0.10;0.10;;;;;;;;;;5090108;28;20028;-73
2023/03/24 07:24:34;;;;;;;0.17;0.17;;;;;;;;;;5090345;28;20093;-71
2023/03/24 07:27:14;;;;;;;0.15;0.15;;;;;;;;;;5090135;28;20101;-72
2023/03/24 07:29:40;;;;;;;0.10;0.10;;;;;;;;;;5090133;28;20036;-75
2023/03/24 07:32:23;;;;;;;0.10;0.10;;;;;;;;;;5090364;28;20077;-76
2023/03/24 07:34:48;;;;;;;2.03;1.85;;;;;;;;;;5090173;28;20053;-76
2023/03/24 07:37:15;;;;;;;0.15;0.15;;;;;;;;;;5089660;28;20115;-76
2023/03/24 07:39:40;;;;;;;0.10;0.10;;;;;;;;;;5091358;28;20116;-75
2023/03/24 07:42:06;;;;;;;0.10;0.10;;;;;;;;;;5089836;28;20453;-75
2023/03/24 07:44:57;;;;;;;0.20;0.20;;;;;;;;;;5090223;28;20464;-75
2023/03/24 07:47:23;;;;;;;0.40;0.40;;;;;;;;;;5091349;28;20060;-76
2023/03/24 07:49:48;;;;;;;0.63;0.63;;;;;;;;;;5089917;28;20066;-77
2023/03/24 07:52:14;;;;;;;0.20;0.20;;;;;;;;;;5089914;28;20077;-75
2023/03/24 07:54:45;;;;;;;0.20;0.20;;;;;;;;;;5089862;28;20036;-75
2023/03/24 07:57:35;;;;;;;0.20;0.20;;;;;;;;;;5090530;28;20040;-75
2023/03/24 08:00:13;;;;;;;0.63;0.47;;;;;;;;;;5089668;28;20043;-73
2023/03/24 08:02:50;;;;;;;0.30;0.30;;;;;;;;;;5089950;28;20127;-76
2023/03/24 08:05:39;;;;;;;0.10;0.10;;;;;;;;;;5089577;28;20402;-77
2023/03/24 08:08:34;;;;;;;0.20;0.20;;;;;;;;;;5090278;28;20094;-76
2023/03/24 08:11:00;;;;;;;0.40;0.40;;;;;;;;;;5090852;28;20503;-76
2023/03/24 08:13:25;;;;;;;0.20;0.20;;;;;;;;;;5089292;28;20032;-76
2023/03/24 08:15:52;;;;;;;0.28;0.28;;;;;;;;;;5090583;28;20119;-76
2023/03/24 08:18:19;;;;;;;0.57;0.40;;;;;;;;;;5090870;28;20060;-76
2023/03/24 08:20:45;;;;;;;1.83;1.05;;;;;;;;;;5091126;28;20042;-76
2023/03/24 08:23:10;;;;;;;1.65;1.27;;;;;;;;;;5089257;28;20114;-76
2023/03/24 08:25:36;;;;;;;0.20;0.20;;;;;;;;;;5090398;28;20081;-75
2023/03/24 08:28:01;;;;;;;1.33;1.00;;;;;;;;;;5090406;28;20085;-76
2023/03/24 08:30:27;;;;;;;0.95;0.63;;;;;;;;;;5072192;28;20472;-78
2023/03/24 08:32:54;;;;;;;0.10;0.10;;;;;;;;;;5090870;28;20035;-76
2023/03/24 08:35:24;;;;;;;0.20;0.20;;;;;;;;;;5071883;28;20064;-75
2023/03/24 08:37:49;;;;;;;0.20;0.20;;;;;;;;;;5090229;28;20029;-75
2023/03/24 08:40:18;;;;;;;0.13;0.13;;;;;;;;;;5089021;28;20112;-78
2023/03/24 08:42:46;;;;;;;1.00;0.95;;;;;;;;;;5089164;28;20020;-76
2023/03/24 08:45:12;;;;;;;0.45;0.45;;;;;;;;;;5088447;28;20048;-76
2023/03/24 08:47:37;;;;;;;0.22;0.22;;;;;;;;;;5090282;28;20088;-75
2023/03/24 08:50:03;;;;;;;0.57;0.57;;;;;;;;;;5089670;28;20036;-76
2023/03/24 08:52:29;;;;;;;0.20;0.20;;;;;;;;;;5081400;28;20036;-76
2023/03/24 08:54:55;;;;;;;0.10;0.10;;;;;;;;;;5074693;28;20979;-77
2023/03/24 08:57:21;;;;;;;0.20;0.20;;;;;;;;;;5069478;28;20123;-76
2023/03/24 08:59:46;;;;;;;0.17;0.17;;;;;;;;;;5071288;28;20071;-75
2023/03/24 09:02:12;;;;;;;0.15;0.15;;;;;;;;;;5075255;28;20264;-76
2023/03/24 09:04:38;;;;;;;0.20;0.20;;;;;;;;;;5079481;28;20490;-76
2023/03/24 09:07:03;;;;;;;0.20;0.20;;;;;;;;;;5077802;28;20044;-76
2023/03/24 09:09:29;;;;;;;0.13;0.13;;;;;;;;;;5076186;28;20028;-78
2023/03/24 09:11:54;;;;;;;0.17;0.17;;;;;;;;;;5069747;28;20067;-76
2023/03/24 09:14:21;;;;;;;0.68;0.40;;;;;;;;;;5076124;28;20035;-76
2023/03/24 09:16:47;;;;;;;0.20;0.20;;;;;;;;;;5073058;28;20158;-76
2023/03/24 09:19:13;;;;;;;0.50;0.43;;;;;;;;;;5070928;28;20058;-76
2023/03/24 09:21:40;;;;;;;0.20;0.20;;;;;;;;;;5074908;28;20094;-75
2023/03/24 09:24:06;;;;;;;0.28;0.28;;;;;;;;;;5067355;28;20040;-75
2023/03/24 09:26:32;;;;;;;0.55;0.43;;;;;;;;;;5068969;28;20438;-76
2023/03/24 09:28:58;;;;;;;0.32;0.32;;;;;;;;;;5069163;28;20017;-75
2023/03/24 09:31:23;;;;;;;1.15;0.60;;;;;;;;;;5069081;28;20085;-76
2023/03/24 09:33:49;;;;;;;3.35;1.20;;;;;;;;;;5068510;28;20028;-75
2023/03/24 09:36:15;;;;;;;0.20;0.20;;;;;;;;;;5050714;28;20025;-75
2023/03/24 09:38:41;;;;;;;0.63;0.55;;;;;;;;;;5069165;28;20470;-76
2023/03/24 09:41:14;;;;;;;0.65;0.65;;;;;;;;;;5068999;28;20028;-76
2023/03/24 09:43:59;;;;;;;0.20;0.20;;;;;;;;;;5051075;28;20039;-76
2023/03/24 09:46:30;;;;;;;3.95;1.08;;;;;;;;;;5068993;28;20036;-76
2023/03/24 09:48:58;;;;;;;0.63;0.40;;;;;;;;;;5069222;28;20039;-75
2023/03/24 09:51:28;;;;;;;0.65;0.57;;;;;;;;;;5067698;28;20075;-76
2023/03/24 09:53:56;;;;;;;1.55;1.02;;;;;;;;;;5067842;28;20039;-74
2023/03/24 09:56:22;;;;;;;0.38;0.35;;;;;;;;;;5068700;28;20162;-77
2023/03/24 09:58:51;;;;;;;0.20;0.20;;;;;;;;;;5069010;28;20476;-76
2023/03/24 10:01:23;;;;;;;0.20;0.20;;;;;;;;;;5069553;28;20025;-76
2023/03/24 10:03:49;;;;;;;0.20;0.20;;;;;;;;;;5071699;28;20116;-75
2023/03/24 10:06:29;;;;;;;1.65;1.00;;;;;;;;;;5072683;28;20111;-75
2023/03/24 10:09:15;;;;;;;1.05;0.55;;;;;;;;;;5072901;28;20078;-75
2023/03/24 10:11:44;;;;;;;0.30;0.30;;;;;;;;;;5072225;28;20605;-75
2023/03/24 10:14:15;;;;;;;1.83;1.55;;;;;;;;;;5072613;28;20357;-75
2023/03/24 10:16:48;;;;;;;0.68;0.63;;;;;;;;;;5080927;28;20047;-75
2023/03/24 10:19:16;;;;;;;0.20;0.20;;;;;;;;;;5077836;28;20357;-75
2023/03/24 10:21:48;;;;;;;0.30;0.30;;;;;;;;;;5072648;28;20044;-76
2023/03/24 10:24:25;;;;;;;0.38;0.38;;;;;;;;;;5072277;28;20028;-75
2023/03/24 10:27:27;;;;;;;0.43;0.40;;;;;;;;;;5083174;28;20063;-76
2023/03/24 10:29:55;;;;;;;0.57;0.45;;;;;;;;;;5070050;28;20530;-77
2023/03/24 10:32:22;;;;;;;0.20;0.20;;;;;;;;;;5086532;28;20052;-75
2023/03/24 10:34:51;;;;;;;0.45;0.45;;;;;;;;;;5081264;28;20097;-75
2023/03/24 10:37:17;;;;;;;0.52;0.43;;;;;;;;;;5070712;28;20040;-76
2023/03/24 10:39:43;;;;;;;1.50;1.08;;;;;;;;;;5072259;28;20032;-76
2023/03/24 10:42:12;;;;;;;0.50;0.50;;;;;;;;;;5070627;28;20085;-75
2023/03/24 10:44:38;;;;;;;4.05;0.98;;;;;;;;;;5084141;28;20043;-76
2023/03/24 10:47:07;;;;;;;0.63;0.40;;;;;;;;;;5091265;28;20036;-76
2023/03/24 10:49:32;;;;;;;1.60;1.30;;;;;;;;;;5091369;28;20067;-75
2023/03/24 10:52:02;;;;;;;0.20;0.20;;;;;;;;;;5092340;28;20428;-75
2023/03/24 10:54:29;;;;;;;4.47;1.20;;;;;;;;;;5090893;28;20391;-75
2023/03/24 10:57:02;;;;;;;0.30;0.30;;;;;;;;;;5073607;28;20483;-74
2023/03/24 10:59:27;;;;;;;0.20;0.20;;;;;;;;;;5091249;28;20487;-74
2023/03/24 11:02:14;;;;;;;2.00;0.88;;;;;;;;;;5091784;28;20023;-75
2023/03/24 11:04:42;;;;;;;2.72;1.60;;;;;;;;;;5084127;28;20036;-75
2023/03/24 11:07:19;;;;;;;0.65;0.65;;;;;;;;;;5089335;28;20111;-74
2023/03/24 11:09:47;;;;;;;1.25;0.32;;;;;;;;;;5090350;28;20082;-74
2023/03/24 11:12:19;;;;;;;1.20;0.85;;;;;;;;;;5089380;28;20042;-75
2023/03/24 11:14:45;;;;;;;1.30;1.02;;;;;;;;;;5091618;28;20032;-74
2023/03/24 11:17:11;;;;;;;0.40;0.40;;;;;;;;;;5091592;28;20415;-74
2023/03/24 11:19:37;;;;;;;1.73;0.93;;;;;;;;;;5091608;28;20360;-74
2023/03/24 11:22:05;;;;;;;0.40;0.40;;;;;;;;;;5091700;28;20040;-75
2023/03/24 11:24:34;;;;;;;1.48;0.73;;;;;;;;;;5092011;28;20044;-75
2023/03/24 11:27:00;;;;;;;0.30;0.30;;;;;;;;;;5091647;28;20035;-75
2023/03/24 11:29:27;;;;;;;0.55;0.50;;;;;;;;;;5070768;28;20055;-74
2023/03/24 11:32:00;;;;;;;0.88;0.70;;;;;;;;;;5088468;28;20028;-76
2023/03/24 11:34:37;;;;;;;0.77;0.73;;;;;;;;;;5090471;28;20028;-75
2023/03/24 11:37:05;;;;;;;1.60;0.90;;;;;;;;;;5074091;28;20434;-75
2023/03/24 11:39:33;;;;;;;0.93;0.80;;;;;;;;;;5069636;28;20029;-75
2023/03/24 11:42:15;;;;;;;1.35;0.85;;;;;;;;;;5085965;28;20024;-76
2023/03/24 11:44:42;;;;;;;0.90;0.80;;;;;;;;;;5090396;28;20119;-74
2023/03/24 11:47:14;;;;;;;0.88;0.82;;;;;;;;;;5089586;28;20020;-74
2023/03/24 11:49:45;;;;;;;2.03;0.82;;;;;;;;;;5091160;28;20032;-74
2023/03/24 11:52:32;;;;;;;0.35;0.32;;;;;;;;;;5090221;28;20028;-74
2023/03/24 11:54:57;;;;;;;0.20;0.20;;;;;;;;;;5084134;28;20111;-74
2023/03/24 11:57:29;;;;;;;2.25;1.23;;;;;;;;;;5070820;28;20127;-74
2023/03/24 11:59:58;;;;;;;0.93;0.75;;;;;;;;;;5070833;28;20093;-74
2023/03/24 12:02:44;;;;;;;3.38;1.33;;;;;;;;;;5070323;28;20082;-74
2023/03/24 12:05:22;;;;;;;0.30;0.30;;;;;;;;;;5069134;28;20093;-74
2023/03/24 12:08:05;;;;;;;2.13;0.73;;;;;;;;;;5052536;28;20503;-75
2023/03/24 12:10:37;;;;;;;2.10;1.30;;;;;;;;;;5070611;28;20801;-74
2023/03/24 12:13:10;;;;;;;5.05;3.55;;;;;;;;;;5068932;28;20086;-74
2023/03/24 12:15:36;;;;;;;4.10;2.30;;;;;;;;;;5068865;28;20036;-75
2023/03/24 12:18:13;;;;;;;2.42;1.60;;;;;;;;;;5069133;28;20044;-74
2023/03/24 12:20:50;;;;;;;0.30;0.30;;;;;;;;;;5068882;28;20488;-74
2023/03/24 12:23:41;;;;;;;0.95;0.77;;;;;;;;;;5069934;28;20028;-74
2023/03/24 12:26:10;;;;;;;0.40;0.40;;;;;;;;;;5070917;28;20052;-75
2023/03/24 12:28:55;;;;;;;0.10;0.10;;;;;;;;;;5052574;28;20035;-75
2023/03/24 12:31:42;;;;;;;0.20;0.20;;;;;;;;;;5068734;28;20289;-74
2023/03/24 12:34:14;;;;;;;0.63;0.50;;;;;;;;;;5068947;28;20047;-73
2023/03/24 12:36:40;;;;;;;0.15;0.15;;;;;;;;;;5069719;28;20060;-74
2023/03/24 12:39:05;;;;;;;1.33;0.55;;;;;;;;;;5051804;28;20121;-74
2023/03/24 12:41:31;;;;;;;0.25;0.20;;;;;;;;;;5069579;28;20052;-74
2023/03/24 12:44:02;;;;;;;0.40;0.40;;;;;;;;;;5070286;28;20043;-74
2023/03/24 12:46:28;;;;;;;1.02;0.80;;;;;;;;;;5070529;28;20565;-74
2023/03/24 12:49:01;;;;;;;0.10;0.10;;;;;;;;;;5068446;28;20064;-74
2023/03/24 12:51:30;;;;;;;0.73;0.65;;;;;;;;;;5052099;28;20036;-73
2023/03/24 12:54:03;;;;;;;1.33;0.90;;;;;;;;;;5068248;28;20032;-74
2023/03/24 12:56:34;;;;;;;0.65;0.52;;;;;;;;;;5051570;28;20032;-74
2023/03/24 12:59:03;;;;;;;0.50;0.38;;;;;;;;;;5068463;28;20047;-74
2023/03/24 13:01:32;;;;;;;0.52;0.52;;;;;;;;;;5067846;28;20027;-74
2023/03/24 13:04:04;;;;;;;3.00;1.17;;;;;;;;;;5067894;28;20033;-75
2023/03/24 13:06:35;;;;;;;0.93;0.80;;;;;;;;;;5068537;28;20036;-74
2023/03/24 13:09:04;;;;;;;0.32;0.32;;;;;;;;;;5068295;28;20032;-74
2023/03/24 13:11:55;;;;;;;0.23;0.23;;;;;;;;;;5067835;28;20036;-74
2023/03/24 13:14:28;;;;;;;1.98;0.80;;;;;;;;;;5070005;28;20049;-73
2023/03/24 13:16:59;;;;;;;0.20;0.20;;;;;;;;;;5067624;28;20036;-74
2023/03/24 13:19:24;;;;;;;0.30;0.30;;;;;;;;;;5067871;28;20090;-74
2023/03/24 13:21:51;;;;;;;0.30;0.30;;;;;;;;;;5069157;28;20388;-74
2023/03/24 13:24:17;;;;;;;0.28;0.28;;;;;;;;;;5051040;28;20070;-74
2023/03/24 13:26:53;;;;;;;0.20;0.20;;;;;;;;;;5068013;28;20060;-74
2023/03/24 13:29:21;;;;;;;2.30;1.17;;;;;;;;;;5050763;28;20047;-73
2023/03/24 13:31:50;;;;;;;0.50;0.47;;;;;;;;;;5051504;28;20067;-73
2023/03/24 13:34:25;;;;;;;2.25;1.27;;;;;;;;;;5069848;28;20262;-74
2023/03/24 13:36:54;;;;;;;0.88;0.73;;;;;;;;;;5067426;28;20041;-74
2023/03/24 13:39:21;;;;;;;0.38;0.38;;;;;;;;;;5068893;28;20037;-73
2023/03/24 13:41:51;;;;;;;0.20;0.20;;;;;;;;;;5068257;28;20028;-73
2023/03/24 13:44:21;;;;;;;0.28;0.28;;;;;;;;;;5067768;28;20395;-74
2023/03/24 13:46:46;;;;;;;;;;;;;;;;;;5079545;28;20024;-74
2023/03/24 13:49:13;;;;;;;1.77;0.90;;;;;;;;;;5089283;28;20425;-74
2023/03/24 13:51:45;;;;;;;0.30;0.30;;;;;;;;;;5078135;28;20323;-73
2023/03/24 13:54:29;;;;;;;2.05;1.00;;;;;;;;;;5053792;28;20766;-74
2023/03/24 13:57:02;;;;;;;0.22;0.22;;;;;;;;;;5068003;28;20094;-74
2023/03/24 13:59:55;;;;;;;0.85;0.68;;;;;;;;;;5065791;28;20071;-74
2023/03/24 14:02:27;;;;;;;2.92;1.52;;;;;;;;;;5066210;28;20029;-74
2023/03/24 14:04:55;;;;;;;0.20;0.20;;;;;;;;;;5066272;28;20040;-74
2023/03/24 14:07:32;;;;;;;0.30;0.30;;;;;;;;;;5067077;28;20037;-74
2023/03/24 14:09:59;;;;;;;0.90;0.47;;;;;;;;;;5067513;28;20037;-74
2023/03/24 14:12:26;;;;;;;0.28;0.22;;;;;;;;;;5065743;28;20025;-73
2023/03/24 14:15:04;;;;;;;1.15;0.98;;;;;;;;;;5067470;28;20095;-74
2023/03/24 14:17:29;;;;;;;0.95;0.60;;;;;;;;;;5065179;28;20033;-75
2023/03/24 14:19:58;;;;;;;0.70;0.63;;;;;;;;;;5048824;28;20047;-74
2023/03/24 14:22:29;;;;;;;1.27;0.95;;;;;;;;;;5066763;28;20503;-74
2023/03/24 14:25:18;;;;;;;1.88;0.90;;;;;;;;;;5065558;28;20025;-74
2023/03/24 14:27:44;;;;;;;0.50;0.32;;;;;;;;;;5066522;28;20040;-75
2023/03/24 14:30:10;;;;;;;0.35;0.35;;;;;;;;;;5067458;28;20044;-74
2023/03/24 14:32:55;;;;;;;0.40;0.40;;;;;;;;;;5069002;28;20036;-74
2023/03/24 14:35:35;;;;;;;1.80;1.35;;;;;;;;;;5067059;28;20385;-74
2023/03/24 14:38:18;;;;;;;2.90;2.05;;;;;;;;;;5067963;28;20361;-74
2023/03/24 14:40:45;;;;;;;3.30;1.60;;;;;;;;;;5080916;28;20379;-75
2023/03/24 14:43:30;;;;;;;0.50;0.50;;;;;;;;;;5082159;28;20118;-75
2023/03/24 14:46:01;;;;;;;0.28;0.28;;;;;;;;;;5078704;28;20040;-74
2023/03/24 14:48:32;;;;;;;1.48;1.00;;;;;;;;;;5085445;28;20483;-74
2023/03/24 14:51:00;;;;;;;1.95;1.45;;;;;;;;;;5082196;28;20144;-74
2023/03/24 14:53:26;;;;;;;0.88;0.80;;;;;;;;;;5086662;28;20492;-73
2023/03/24 14:55:52;;;;;;;0.28;0.28;;;;;;;;;;5072326;28;20119;-74
2023/03/24 14:58:23;;;;;;;1.80;1.10;;;;;;;;;;5072405;28;20036;-74
2023/03/24 15:00:50;;;;;;;0.30;0.30;;;;;;;;;;5089758;28;20040;-74
2023/03/24 15:03:22;;;;;;;1.02;0.77;;;;;;;;;;5091044;28;20472;-73
2023/03/24 15:05:47;;;;;;;2.97;1.13;;;;;;;;;;5090884;28;20036;-75
2023/03/24 15:08:17;;;;;;;1.63;1.20;;;;;;;;;;5092053;28;20039;-75